Time;durP1;ratioP1;P1;durP2;ratioP2;P2;SDS_P1;SDS_P2;PMS_P1;PMS_P2;Temp;Humidity;BMP_temperature;BMP_pressure;BME280_temperature;BME280_humidity;BME280_pressure;Samples;Min_cycle;Max_cycle;Signal;HPM_P1;HPM_P2
2021/12/27 00:00:11;;;;;;;27.45;11.18;;;;;;;-2.98;74.16;100064.56;4420899;32;20127;-66
2021/12/27 00:02:39;;;;;;;30.10;12.75;;;;;;;-2.84;73.53;100059.91;4421197;32;20112;-66
2021/12/27 00:05:07;;;;;;;26.62;11.88;;;;;;;-2.75;72.82;100061.97;4421053;32;20097;-66
2021/12/27 00:07:34;;;;;;;33.35;12.43;;;;;;;-2.82;73.34;100058.28;4420865;32;20128;-66
2021/12/27 00:10:04;;;;;;;30.17;13.52;;;;;;;-2.83;73.62;100059.09;4419449;32;20128;-66
2021/12/27 00:12:33;;;;;;;32.03;13.07;;;;;;;-2.89;74.50;100053.72;4420898;32;20107;-66
2021/12/27 00:15:03;;;;;;;29.42;11.88;;;;;;;-2.89;73.25;100038.25;4421070;32;20109;-66
2021/12/27 00:17:31;;;;;;;27.00;12.55;;;;;;;-2.85;72.37;100037.53;4420575;32;20089;-66
2021/12/27 00:19:58;;;;;;;29.52;11.20;;;;;;;-2.84;71.75;100043.56;4420586;32;20128;-66
2021/12/27 00:22:25;;;;;;;34.63;12.02;;;;;;;-2.76;71.60;100050.75;4420379;32;20081;-66
2021/12/27 00:24:52;;;;;;;25.75;10.82;;;;;;;-2.80;71.72;100053.16;4420743;32;20465;-66
2021/12/27 00:27:22;;;;;;;26.37;10.65;;;;;;;-2.73;71.14;100050.87;4420761;32;20170;-66
2021/12/27 00:29:51;;;;;;;30.75;12.63;;;;;;;-2.70;70.85;100050.97;4420666;32;20097;-66
2021/12/27 00:32:19;;;;;;;28.80;11.65;;;;;;;-2.90;71.48;100047.69;4420733;32;20116;-66
2021/12/27 00:34:46;;;;;;;27.02;11.30;;;;;;;-2.96;72.56;100050.03;4420579;32;20152;-66
2021/12/27 00:37:14;;;;;;;27.17;11.48;;;;;;;-2.70;71.56;100047.53;4420583;32;20119;-66
2021/12/27 00:39:42;;;;;;;23.98;12.18;;;;;;;-2.87;73.03;100052.06;4420592;32;20144;-66
2021/12/27 00:42:09;;;;;;;30.70;12.32;;;;;;;-2.96;74.07;100052.62;4420569;32;20488;-66
2021/12/27 00:44:36;;;;;;;36.28;12.93;;;;;;;-2.97;74.28;100058.59;4420745;32;20089;-66
2021/12/27 00:47:04;;;;;;;31.65;13.88;;;;;;;-2.68;72.79;100059.66;4420573;32;20105;-66
2021/12/27 00:49:31;;;;;;;35.05;14.82;;;;;;;-2.48;71.46;100067.22;4420521;32;20154;-66
2021/12/27 00:51:58;;;;;;;48.33;18.73;;;;;;;-2.83;73.55;100059.09;4420491;32;20090;-66
2021/12/27 00:54:26;;;;;;;40.90;16.42;;;;;;;-3.05;75.31;100047.13;4420484;32;20166;-66
2021/12/27 00:56:53;;;;;;;44.65;15.63;;;;;;;-3.29;78.20;100047.06;4420483;32;20101;-66
2021/12/27 00:59:20;;;;;;;40.55;14.25;;;;;;;-3.12;75.97;100046.00;4420267;32;20472;-66
2021/12/27 01:01:47;;;;;;;28.80;12.30;;;;;;;-3.09;76.01;100045.25;4420393;32;20459;-66
2021/12/27 01:04:15;;;;;;;24.98;10.57;;;;;;;-2.99;75.16;100046.47;4420366;32;20089;-66
2021/12/27 01:06:45;;;;;;;27.00;10.45;;;;;;;-2.98;74.41;100041.38;4420576;32;20096;-66
2021/12/27 01:09:20;;;;;;;28.95;10.90;;;;;;;-2.93;74.10;100046.72;4420255;32;20151;-66
2021/12/27 01:17:52;;;;;;;31.30;13.77;;;;;;;-2.69;72.53;100057.00;4466252;32;20154;-66
2021/12/27 01:20:22;;;;;;;40.95;15.10;;;;;;;-2.61;72.14;100047.88;4429070;32;20161;-66
2021/12/27 01:22:51;;;;;;;38.97;14.32;;;;;;;-2.51;71.73;100052.53;4420199;32;20362;-66
2021/12/27 01:25:19;;;;;;;38.97;14.68;;;;;;;-2.47;71.75;100049.22;4420074;32;20425;-66
2021/12/27 01:27:51;;;;;;;41.92;14.77;;;;;;;-2.56;72.08;100056.63;4420011;32;20524;-66
2021/12/27 01:30:20;;;;;;;30.75;13.77;;;;;;;-2.98;75.23;100041.38;4420189;32;20085;-66
2021/12/27 01:32:53;;;;;;;33.60;14.27;;;;;;;-2.97;74.89;100035.41;4421271;32;20505;-66
2021/12/27 01:35:21;;;;;;;29.45;12.37;;;;;;;-2.74;74.51;100031.06;4422407;32;20089;-66
2021/12/27 01:37:50;;;;;;;30.05;13.15;;;;;;;-2.80;74.26;100036.00;4420749;32;20097;-66
2021/12/27 01:40:21;;;;;;;29.12;10.82;;;;;;;-2.94;75.33;100032.03;4422618;32;20102;-66
2021/12/27 01:43:07;;;;;;;30.15;12.68;;;;;;;-2.95;74.83;100033.75;4422356;32;20103;-66
2021/12/27 01:45:41;;;;;;;27.37;10.85;;;;;;;-2.99;74.65;100039.63;4422274;32;20141;-66
2021/12/27 01:48:19;;;;;;;29.45;11.15;;;;;;;-2.99;74.02;100031.88;4422342;32;20078;-66
2021/12/27 01:50:47;;;;;;;21.80;10.20;;;;;;;-2.68;72.92;100033.00;4422299;32;20101;-66
2021/12/27 01:53:17;;;;;;;25.40;10.63;;;;;;;-2.53;72.10;100030.94;4422124;32;20081;-66
2021/12/27 01:55:45;;;;;;;21.00;9.90;;;;;;;-2.50;72.02;100027.59;4422343;32;20530;-66
2021/12/27 01:58:13;;;;;;;22.85;9.98;;;;;;;-2.52;72.00;100027.53;4421944;32;20131;-66
2021/12/27 02:00:43;;;;;;;29.67;11.23;;;;;;;-2.48;71.80;100031.09;4422071;32;20164;-66
2021/12/27 02:03:14;;;;;;;27.45;11.85;;;;;;;-2.53;71.96;100028.38;4422251;32;20192;-66
2021/12/27 02:05:42;;;;;;;30.05;12.10;;;;;;;-2.49;72.02;100025.06;4422204;32;20108;-66
2021/12/27 02:08:10;;;;;;;27.83;11.80;;;;;;;-2.51;71.87;100023.25;4421978;32;20094;-66
2021/12/27 02:10:39;;;;;;;23.67;11.05;;;;;;;-2.60;72.17;100035.84;4421998;32;20118;-66
2021/12/27 02:13:06;;;;;;;23.40;10.57;;;;;;;-2.46;71.66;100029.47;4422100;32;20082;-66
2021/12/27 02:15:34;;;;;;;30.23;11.52;;;;;;;-2.39;71.61;100031.44;4421942;32;20120;-66
2021/12/27 02:18:02;;;;;;;31.90;12.20;;;;;;;-2.58;72.16;100035.09;4421915;32;20089;-66
2021/12/27 02:20:34;;;;;;;29.08;12.20;;;;;;;-2.89;74.84;100033.97;4421959;32;20150;-66
2021/12/27 02:23:14;;;;;;;27.02;12.10;;;;;;;-2.81;74.37;100031.66;4421785;32;20145;-66
2021/12/27 02:25:44;;;;;;;27.70;10.48;;;;;;;-2.90;75.87;100027.06;4422158;32;20142;-66
2021/12/27 02:28:12;;;;;;;31.65;11.60;;;;;;;-2.95;77.02;100028.59;4422153;32;20142;-66
2021/12/27 02:30:41;;;;;;;20.55;9.20;;;;;;;-2.83;76.55;100023.00;4421888;32;20165;-66
2021/12/27 02:33:10;;;;;;;25.70;9.80;;;;;;;-2.67;75.29;100022.72;4421688;32;20453;-66
2021/12/27 02:35:40;;;;;;;22.65;9.55;;;;;;;-2.58;73.19;100014.44;4421855;32;20467;-66
2021/12/27 02:38:10;;;;;;;22.67;8.50;;;;;;;-2.47;71.90;100015.69;4421680;32;20159;-66
2021/12/27 02:40:39;;;;;;;24.23;9.63;;;;;;;-2.34;71.11;100018.66;4421871;32;20192;-66
2021/12/27 02:43:14;;;;;;;26.60;9.45;;;;;;;-2.52;70.76;100017.22;4421653;32;20082;-66
2021/12/27 02:45:46;;;;;;;21.12;9.25;;;;;;;-2.45;71.08;100015.72;4422011;32;20078;-66
2021/12/27 02:48:15;;;;;;;23.50;9.50;;;;;;;-2.39;71.35;100013.37;4421573;32;20584;-66
2021/12/27 02:50:44;;;;;;;20.90;8.57;;;;;;;-2.50;71.83;100017.28;4421597;32;20172;-66
2021/12/27 02:53:12;;;;;;;23.62;8.93;;;;;;;-2.37;71.38;100018.56;4421677;32;20472;-66
2021/12/27 02:55:40;;;;;;;22.27;9.70;;;;;;;-2.48;72.04;100006.16;4421570;32;20185;-66
2021/12/27 02:58:09;;;;;;;18.33;8.77;;;;;;;-2.41;71.61;100010.72;4421595;32;20120;-66
2021/12/27 03:00:56;;;;;;;20.00;8.68;;;;;;;-2.48;72.11;100001.00;4421934;32;20160;-66
2021/12/27 03:03:24;;;;;;;24.00;9.80;;;;;;;-2.51;72.44;100005.19;4421561;32;20118;-66
2021/12/27 03:05:52;;;;;;;22.17;9.88;;;;;;;-2.44;72.38;100002.00;4421441;32;20089;-66
2021/12/27 03:08:20;;;;;;;18.12;8.68;;;;;;;-2.42;72.71;100001.22;4421471;32;20098;-66
2021/12/27 03:10:51;;;;;;;25.62;9.77;;;;;;;-2.31;72.16;100001.59;4421514;32;20155;-66
2021/12/27 03:13:21;;;;;;;24.23;9.57;;;;;;;-2.01;70.62;100004.31;4421406;32;20560;-66
2021/12/27 03:16:01;;;;;;;24.80;9.73;;;;;;;-2.24;71.46;100006.13;4421366;32;20094;-66
2021/12/27 03:18:29;;;;;;;20.08;8.73;;;;;;;-2.41;72.55;99997.81;4421467;32;20116;-66
2021/12/27 03:20:57;;;;;;;19.02;8.80;;;;;;;-2.53;73.53;99991.38;4421655;32;20105;-66
2021/12/27 03:23:24;;;;;;;22.65;8.88;;;;;;;-2.45;73.64;99995.97;4421334;32;20097;-66
2021/12/27 03:25:53;;;;;;;20.15;9.18;;;;;;;-2.34;72.90;99988.59;4421509;32;20094;-66
2021/12/27 03:28:21;;;;;;;22.20;8.57;;;;;;;-2.46;73.60;99991.63;4421422;32;20148;-66
2021/12/27 03:30:48;;;;;;;22.67;9.40;;;;;;;-2.34;73.38;99982.53;4421282;32;20106;-66
2021/12/27 03:33:22;;;;;;;28.50;9.77;;;;;;;-2.35;72.21;99998.88;4421400;32;20546;-66
2021/12/27 03:36:02;;;;;;;24.20;9.27;;;;;;;-2.44;73.25;99984.84;4421339;32;20124;-66
2021/12/27 03:38:33;;;;;;;19.98;9.10;;;;;;;-2.40;73.06;99993.56;4421268;32;20468;-66
2021/12/27 03:41:01;;;;;;;18.62;8.43;;;;;;;-2.40;73.92;99988.41;4421550;32;20517;-66
2021/12/27 03:43:29;;;;;;;22.33;9.02;;;;;;;-2.43;74.22;99986.59;4421197;32;20142;-66
2021/12/27 03:45:56;;;;;;;20.42;8.65;;;;;;;-2.42;74.13;99990.03;4421188;32;20543;-66
2021/12/27 03:48:25;;;;;;;19.40;9.30;;;;;;;-2.22;73.35;99993.28;4419587;32;20776;-66
2021/12/27 03:50:56;;;;;;;19.08;8.77;;;;;;;-2.25;72.98;99993.19;4421137;32;20101;-66
2021/12/27 03:53:24;;;;;;;21.62;7.90;;;;;;;-2.24;73.43;99990.62;4421269;32;20463;-66
2021/12/27 03:55:51;;;;;;;22.98;9.05;;;;;;;-2.02;72.27;99996.50;4419996;32;20469;-66
2021/12/27 03:58:26;;;;;;;20.48;8.60;;;;;;;-1.95;71.97;99994.16;4420960;32;20169;-66
2021/12/27 04:03:22;;;;;;;20.15;8.98;;;;;;;-2.14;73.25;99999.56;4420798;32;20145;-66
2021/12/27 04:05:49;;;;;;;21.23;10.63;;;;;;;-2.17;73.85;99995.19;4421138;32;20116;-66
2021/12/27 04:08:18;;;;;;;18.45;9.15;;;;;;;-2.34;74.92;99988.59;4420911;32;20484;-66
2021/12/27 04:10:48;;;;;;;28.85;10.27;;;;;;;-2.36;75.59;99994.53;4420907;32;20097;-66
2021/12/27 04:13:21;;;;;;;25.10;10.57;;;;;;;-2.16;74.85;99996.06;4420883;32;20111;-66
2021/12/27 04:15:50;;;;;;;28.58;11.12;;;;;;;-1.98;74.11;99994.09;4420890;32;20160;-66
2021/12/27 04:18:18;;;;;;;24.80;11.00;;;;;;;-2.31;75.99;100000.72;4419238;32;20105;-66
2021/12/27 04:20:45;;;;;;;21.30;10.20;;;;;;;-2.28;76.02;99998.25;4420741;32;20105;-66
2021/12/27 04:23:14;;;;;;;29.20;11.57;;;;;;;-2.13;74.97;99998.75;4420738;32;20445;-66
2021/12/27 04:25:43;;;;;;;33.03;11.23;;;;;;;-2.11;75.29;99997.09;4420759;32;20119;-66
2021/12/27 04:28:11;;;;;;;41.17;11.90;;;;;;;-2.13;75.81;99998.75;4420620;32;20124;-66
2021/12/27 04:30:39;;;;;;;35.55;11.38;;;;;;;-2.07;75.34;99993.78;4420722;32;20127;-66
2021/12/27 04:33:06;;;;;;;59.00;18.00;;;;;;;-1.90;74.35;99993.47;4420835;32;20131;-66
2021/12/27 04:35:36;;;;;;;51.83;16.70;;;;;;;-1.68;72.91;99993.28;4420623;32;20503;-66
2021/12/27 04:38:05;;;;;;;44.20;16.35;;;;;;;-1.73;73.01;99994.88;4420799;32;20086;-66
2021/12/27 04:40:35;;;;;;;48.90;16.17;;;;;;;-1.71;72.57;99995.78;4420630;32;20123;-66
2021/12/27 04:43:12;;;;;;;53.95;15.57;;;;;;;-1.65;72.14;99995.97;4420827;32;20418;-66
2021/12/27 04:45:44;;;;;;;43.28;15.57;;;;;;;-1.73;72.46;99992.28;4420649;32;20160;-66
2021/12/27 04:48:12;;;;;;;42.47;14.55;;;;;;;-1.43;71.45;99991.44;4420607;32;20160;-66
2021/12/27 04:50:40;;;;;;;37.35;14.27;;;;;;;-1.54;71.67;99997.16;4420556;32;20487;-66
2021/12/27 04:53:07;;;;;;;48.53;18.73;;;;;;;-1.67;72.22;99995.03;4420332;32;20226;-66
2021/12/27 04:55:35;;;;;;;45.17;16.00;;;;;;;-1.71;72.66;99993.19;4420636;32;20097;-66
2021/12/27 04:58:10;;;;;;;42.72;14.43;;;;;;;-1.63;72.41;99990.84;4420675;32;20077;-66
2021/12/27 05:00:42;;;;;;;28.35;12.37;;;;;;;-1.28;71.30;99992.75;4420391;32;20101;-66
2021/12/27 05:03:09;;;;;;;32.05;13.38;;;;;;;-1.60;72.73;99996.09;4420467;32;20081;-66
2021/12/27 05:05:41;;;;;;;33.70;12.23;;;;;;;-1.57;72.34;99997.06;4420308;32;20528;-66
2021/12/27 05:08:08;;;;;;;36.78;11.88;;;;;;;-1.70;73.32;100001.00;4420109;32;20105;-66
2021/12/27 05:10:36;;;;;;;26.83;11.65;;;;;;;-1.57;72.70;100002.25;4420378;32;20101;-66
2021/12/27 05:13:04;;;;;;;30.20;11.25;;;;;;;-1.45;72.41;99992.28;4420219;32;20140;-66
2021/12/27 05:15:31;;;;;;;33.30;11.25;;;;;;;-1.50;73.36;99993.84;4420238;32;20557;-66
2021/12/27 05:17:58;;;;;;;28.42;10.65;;;;;;;-1.59;74.33;99996.16;4420171;32;20101;-66
2021/12/27 05:20:26;;;;;;;24.55;10.27;;;;;;;-1.69;75.25;99994.13;4420083;32;20105;-66
2021/12/27 05:22:53;;;;;;;25.33;10.68;;;;;;;-1.58;74.44;99997.03;4420152;32;20104;-66
2021/12/27 05:25:20;;;;;;;27.48;10.32;;;;;;;-1.57;74.00;99993.63;4420167;32;20116;-66
2021/12/27 05:27:47;;;;;;;30.10;10.60;;;;;;;-1.49;73.45;99998.16;4420091;32;20425;-66
2021/12/27 05:30:19;;;;;;;22.00;10.02;;;;;;;-1.38;73.15;99998.50;4420172;32;20202;-66
2021/12/27 05:32:47;;;;;;;23.92;9.70;;;;;;;-1.24;72.23;100002.38;4420108;32;20108;-66
2021/12/27 05:35:15;;;;;;;22.17;10.48;;;;;;;-1.28;73.03;100002.22;4419963;32;20098;-66
2021/12/27 05:37:45;;;;;;;21.52;9.73;;;;;;;-1.39;73.27;99995.88;4419933;32;20094;-66
2021/12/27 05:40:20;;;;;;;20.35;9.38;;;;;;;-1.34;73.30;99994.28;4419990;32;20477;-66
2021/12/27 05:42:51;;;;;;;24.92;10.73;;;;;;;-1.25;73.08;99991.97;4420218;32;20081;-66
2021/12/27 05:45:20;;;;;;;32.95;12.35;;;;;;;-1.25;73.08;99994.56;4420096;32;20521;-66
2021/12/27 05:47:47;;;;;;;34.03;11.57;;;;;;;-1.04;72.08;100000.34;4419896;32;20105;-66
2021/12/27 05:50:16;;;;;;;33.90;11.48;;;;;;;-1.08;72.18;100000.25;4419846;32;20128;-66
2021/12/27 05:52:43;;;;;;;35.15;12.93;;;;;;;-1.12;72.36;100003.56;4419792;32;20077;-66
2021/12/27 05:55:11;;;;;;;35.08;13.02;;;;;;;-1.22;73.70;99992.06;4420003;32;20557;-66
2021/12/27 05:57:41;;;;;;;27.58;11.52;;;;;;;-1.22;74.00;100002.41;4419903;32;20144;-66
2021/12/27 06:00:11;;;;;;;29.20;12.10;;;;;;;-1.42;74.46;99988.91;4419773;32;20121;-66
2021/12/27 06:02:39;;;;;;;34.22;11.93;;;;;;;-1.36;74.91;99991.66;4418183;32;20085;-66
2021/12/27 06:05:09;;;;;;;31.80;12.02;;;;;;;-1.34;75.67;99995.19;4419635;32;20089;-66
2021/12/27 06:07:36;;;;;;;23.52;11.12;;;;;;;-1.23;74.68;99990.34;4419479;32;20169;-66
2021/12/27 06:10:06;;;;;;;26.98;11.80;;;;;;;-1.24;75.62;99984.28;4419579;32;20849;-66
2021/12/27 06:12:34;;;;;;;32.35;11.60;;;;;;;-1.26;74.96;99987.66;4419510;32;20163;-66
2021/12/27 06:15:01;;;;;;;25.90;10.38;;;;;;;-1.17;75.04;99982.72;4419763;32;20090;-66
2021/12/27 06:17:30;;;;;;;28.10;12.25;;;;;;;-0.99;73.63;99982.38;4419560;32;20098;-66
2021/12/27 06:19:59;;;;;;;38.42;13.88;;;;;;;-1.09;74.37;99977.81;4421078;32;20120;-66
2021/12/27 06:22:28;;;;;;;37.78;16.30;;;;;;;-1.09;75.04;99973.50;4421890;32;20111;-66
2021/12/27 06:24:55;;;;;;;44.85;18.05;;;;;;;-1.03;74.67;99981.41;4421820;32;20115;-66
2021/12/27 06:27:22;;;;;;;41.30;16.85;;;;;;;-1.02;73.75;99972.84;4421828;32;20094;-66
2021/12/27 06:29:49;;;;;;;47.47;17.55;;;;;;;-1.06;73.72;99973.59;4421906;32;20128;-66
2021/12/27 06:32:17;;;;;;;37.72;16.77;;;;;;;-1.16;74.91;99979.34;4421511;32;20089;-66
2021/12/27 06:34:44;;;;;;;42.47;17.02;;;;;;;-0.97;74.20;99979.00;4421248;32;20085;-66
2021/12/27 06:37:11;;;;;;;38.67;16.15;;;;;;;-0.78;73.22;99979.50;4421576;32;20154;-66
2021/12/27 06:39:38;;;;;;;33.28;15.45;;;;;;;-0.49;71.55;99965.66;4421680;32;20855;-66
2021/12/27 06:42:06;;;;;;;33.15;15.63;;;;;;;-0.88;72.99;99967.16;4421983;32;20095;-66
2021/12/27 06:44:36;;;;;;;35.63;14.82;;;;;;;-0.80;73.35;99968.25;4421750;32;20516;-66
2021/12/27 06:47:03;;;;;;;35.55;14.23;;;;;;;-0.77;73.24;99970.94;4421838;32;20128;-66
2021/12/27 06:49:35;;;;;;;31.42;13.40;;;;;;;-0.57;72.03;99961.97;4421752;32;20512;-66
2021/12/27 06:52:03;;;;;;;30.92;13.25;;;;;;;-0.56;71.91;99968.03;4421830;32;20649;-66
2021/12/27 06:54:30;;;;;;;32.38;12.82;;;;;;;-0.62;72.80;99968.75;4421674;32;20483;-66
2021/12/27 06:56:59;;;;;;;32.03;14.82;;;;;;;-0.61;72.63;99973.06;4421591;32;20086;-66
2021/12/27 06:59:28;;;;;;;30.35;13.80;;;;;;;-0.68;72.69;99972.88;4421612;32;20560;-66
2021/12/27 07:01:56;;;;;;;28.10;13.13;;;;;;;-0.73;73.34;99973.62;4421615;32;20480;-66
2021/12/27 07:04:26;;;;;;;29.83;13.10;;;;;;;-0.64;72.94;99973.00;4421862;32;20452;-66
2021/12/27 07:06:54;;;;;;;33.40;13.32;;;;;;;-0.53;72.48;99968.09;4421551;32;20093;-66
2021/12/27 07:09:24;;;;;;;31.58;14.32;;;;;;;-0.52;72.08;99967.28;4421840;32;20093;-66
2021/12/27 07:11:52;;;;;;;30.25;13.18;;;;;;;-0.47;71.25;99967.38;4421583;32;20085;-66
2021/12/27 07:14:20;;;;;;;41.00;14.35;;;;;;;-0.46;71.15;99966.53;4421438;32;20086;-66
2021/12/27 07:16:50;;;;;;;37.22;15.02;;;;;;;-0.42;69.96;99966.69;4421390;32;20097;-66
2021/12/27 07:19:20;;;;;;;34.50;14.40;;;;;;;-0.37;70.09;99957.31;4421433;32;20089;-66
2021/12/27 07:21:47;;;;;;;31.10;13.80;;;;;;;-0.33;69.86;99955.66;4421264;32;20195;-66
2021/12/27 07:24:15;;;;;;;29.10;12.70;;;;;;;-0.20;69.36;99949.97;4421316;32;20506;-66
2021/12/27 07:26:42;;;;;;;34.97;14.02;;;;;;;-0.20;69.24;99962.91;4421392;32;20151;-66
2021/12/27 07:29:14;;;;;;;35.78;15.65;;;;;;;-0.20;68.54;99970.69;4421406;32;20089;-66
2021/12/27 07:31:42;;;;;;;38.65;15.13;;;;;;;-0.23;68.55;99978.37;4421376;32;20077;-66
2021/12/27 07:34:09;;;;;;;38.50;16.73;;;;;;;-0.13;69.00;99975.16;4421171;32;20077;-66
2021/12/27 07:36:36;;;;;;;38.88;17.05;;;;;;;-0.14;69.40;99981.19;4421203;32;20161;-66
2021/12/27 07:39:06;;;;;;;38.03;15.55;;;;;;;-0.14;69.46;99972.53;4421136;32;20089;-66
2021/12/27 07:41:33;;;;;;;30.75;13.60;;;;;;;-0.10;68.49;99975.25;4421012;32;20108;-66
2021/12/27 07:44:03;;;;;;;35.42;15.38;;;;;;;0.07;68.38;99972.16;4421415;32;20096;-66
2021/12/27 07:46:30;;;;;;;27.70;12.93;;;;;;;0.09;68.97;99970.50;4421004;32;20143;-66
2021/12/27 07:48:58;;;;;;;27.92;13.62;;;;;;;0.10;68.46;99967.94;4421076;32;20157;-66
2021/12/27 07:51:25;;;;;;;31.87;13.00;;;;;;;0.04;67.47;99967.81;4421188;31;20156;-66
2021/12/27 07:53:52;;;;;;;38.50;14.05;;;;;;;0.09;67.76;99973.09;4421060;32;20516;-66
2021/12/27 07:56:19;;;;;;;33.42;14.38;;;;;;;0.22;67.06;99969.94;4420934;32;20097;-66
2021/12/27 07:58:49;;;;;;;37.83;13.90;;;;;;;0.29;65.97;99961.47;4421080;32;20922;-66
2021/12/27 08:01:16;;;;;;;37.92;15.10;;;;;;;0.35;65.62;99960.72;4421028;32;20105;-66
2021/12/27 08:03:44;;;;;;;31.45;14.10;;;;;;;0.57;64.00;99960.38;4421160;32;20508;-66
2021/12/27 08:06:12;;;;;;;33.95;15.75;;;;;;;0.61;63.26;99956.13;4421035;32;20600;-66
2021/12/27 08:08:39;;;;;;;35.42;16.30;;;;;;;0.68;62.43;99966.66;4420935;32;20086;-66
2021/12/27 08:11:06;;;;;;;35.03;15.00;;;;;;;0.71;63.02;99958.06;4420824;32;20081;-66
2021/12/27 08:13:35;;;;;;;49.70;17.80;;;;;;;0.80;63.25;99958.25;4420862;32;20161;-66
2021/12/27 08:16:02;;;;;;;39.40;16.33;;;;;;;0.94;61.68;99962.00;4420839;32;20097;-66
2021/12/27 08:18:31;;;;;;;51.83;17.15;;;;;;;1.07;61.43;99954.47;4421006;32;20089;-66
2021/12/27 08:20:58;;;;;;;37.53;15.73;;;;;;;1.12;61.36;99958.00;4420884;32;20138;-66
2021/12/27 08:23:26;;;;;;;35.65;14.82;;;;;;;1.16;60.61;99957.22;4420865;32;20124;-66
2021/12/27 08:25:55;;;;;;;27.95;12.43;;;;;;;1.16;59.06;99952.03;4420935;32;20535;-66
2021/12/27 08:28:22;;;;;;;28.90;12.35;;;;;;;1.29;59.23;99959.19;4420727;32;20101;-66
2021/12/27 08:30:51;;;;;;;28.85;12.10;;;;;;;1.34;59.25;99956.69;4420731;32;20154;-65
2021/12/27 08:33:19;;;;;;;27.15;10.90;;;;;;;1.32;56.89;99953.22;4420871;32;20093;-66
2021/12/27 08:35:46;;;;;;;29.35;10.15;;;;;;;1.51;56.65;99955.28;4420545;32;20093;-65
2021/12/27 08:38:19;;;;;;;27.17;10.85;;;;;;;1.54;56.31;99954.47;4420589;32;20097;-66
2021/12/27 08:40:46;;;;;;;16.20;7.25;;;;;;;1.64;56.27;99958.97;4420608;32;20126;-66
2021/12/27 08:43:16;;;;;;;8.90;5.25;;;;;;;1.74;52.25;99965.19;4420092;32;20069;-66
2021/12/27 08:45:44;;;;;;;11.57;4.95;;;;;;;1.65;51.60;99973.69;4420649;32;20121;-66
2021/12/27 08:48:14;;;;;;;18.70;4.93;;;;;;;1.95;52.47;99978.53;4420619;32;20109;-66
2021/12/27 08:50:42;;;;;;;12.55;4.75;;;;;;;1.88;50.30;99976.69;4420500;32;20085;-65
2021/12/27 08:53:13;;;;;;;7.57;4.47;;;;;;;1.92;48.68;99970.69;4420565;32;20227;-66
2021/12/27 08:55:41;;;;;;;8.68;4.47;;;;;;;1.87;49.03;99969.72;4420476;32;20101;-66
2021/12/27 08:58:09;;;;;;;8.10;4.95;;;;;;;1.96;49.21;99969.87;4420503;32;20085;-66
2021/12/27 09:00:36;;;;;;;7.28;4.20;;;;;;;2.02;49.83;99969.13;4420529;32;20161;-65
2021/12/27 09:03:03;;;;;;;7.12;4.60;;;;;;;1.92;49.51;99968.97;4420345;32;20542;-68
2021/12/27 09:05:31;;;;;;;7.53;4.78;;;;;;;1.94;47.78;99966.38;4420727;32;20105;-66
2021/12/27 09:07:58;;;;;;;7.95;4.90;;;;;;;1.98;49.39;99967.31;4420614;32;20474;-66
2021/12/27 09:10:25;;;;;;;8.52;4.57;;;;;;;2.09;48.10;99960.56;4420333;32;20561;-66
2021/12/27 09:12:53;;;;;;;11.25;4.68;;;;;;;2.19;48.75;99964.16;4420338;32;20102;-65
2021/12/27 09:15:21;;;;;;;16.48;4.45;;;;;;;2.25;48.09;99967.72;4420225;32;20509;-65
2021/12/27 09:17:48;;;;;;;8.18;4.65;;;;;;;2.20;47.90;99966.81;4420184;32;20381;-65
2021/12/27 09:20:15;;;;;;;8.35;5.00;;;;;;;2.28;47.58;99956.53;4420206;32;20089;-66
2021/12/27 09:22:43;;;;;;;13.85;5.25;;;;;;;2.31;50.17;99970.44;4420179;32;20145;-65
2021/12/27 09:25:10;;;;;;;12.50;4.87;;;;;;;2.27;47.89;99965.19;4420094;32;20486;-66
2021/12/27 09:27:37;;;;;;;11.10;4.87;;;;;;;2.52;47.61;99972.47;4420206;32;20097;-65
2021/12/27 09:30:10;;;;;;;7.57;4.65;;;;;;;2.48;47.03;99968.09;4420175;32;20142;-65
2021/12/27 09:32:41;;;;;;;11.50;4.87;;;;;;;2.61;47.49;99961.31;4420301;32;20526;-65
2021/12/27 09:35:08;;;;;;;8.18;4.30;;;;;;;2.42;47.05;99952.38;4419927;32;20162;-66
2021/12/27 09:37:35;;;;;;;7.70;4.40;;;;;;;2.47;47.54;99949.84;4418371;32;20131;-65
2021/12/27 09:40:03;;;;;;;11.90;4.78;;;;;;;2.61;46.74;99946.59;4419869;32;20194;-65
2021/12/27 09:42:31;;;;;;;9.85;5.60;;;;;;;2.63;48.84;99942.28;4419957;32;20213;-66
2021/12/27 09:44:58;;;;;;;11.63;4.78;;;;;;;2.80;47.65;99939.87;4419939;32;20860;-66
2021/12/27 09:47:27;;;;;;;10.43;5.12;;;;;;;2.88;47.35;99934.78;4419927;32;20512;-65
2021/12/27 09:50:20;;;;;;;14.50;5.40;;;;;;;2.96;46.71;99933.13;4419831;32;20444;-66
2021/12/27 09:52:48;;;;;;;12.00;5.03;;;;;;;3.08;48.51;99937.63;4419890;32;20107;-66
2021/12/27 09:55:16;;;;;;;10.98;5.78;;;;;;;3.17;47.82;99927.28;4421732;32;20097;-66
2021/12/27 09:57:43;;;;;;;8.65;5.20;;;;;;;3.24;47.58;99929.09;4422186;32;20114;-65
2021/12/27 10:00:11;;;;;;;11.98;5.57;;;;;;;3.25;46.87;99927.34;4422193;32;20116;-66
2021/12/27 10:02:41;;;;;;;12.75;5.90;;;;;;;3.10;47.66;99935.88;4422197;32;20140;-66
2021/12/27 10:05:12;;;;;;;15.45;7.03;;;;;;;3.15;47.79;99926.41;4422154;32;20133;-65
2021/12/27 10:07:41;;;;;;;10.25;5.55;;;;;;;3.12;47.33;99936.78;4422022;32;20554;-66
2021/12/27 10:10:17;;;;;;;11.45;6.45;;;;;;;3.05;48.99;99924.56;4422164;32;20089;-66
2021/12/27 10:12:45;;;;;;;13.07;5.93;;;;;;;3.14;49.01;99931.59;4422162;32;20878;-66
2021/12/27 10:15:18;;;;;;;13.50;6.05;;;;;;;3.38;49.40;99924.03;4421994;32;20144;-66
2021/12/27 10:17:49;;;;;;;11.05;6.35;;;;;;;3.35;49.47;99921.38;4422121;32;20522;-66
2021/12/27 10:20:18;;;;;;;15.65;6.10;;;;;;;3.40;48.32;99913.66;4421971;32;20082;-66
2021/12/27 10:22:48;;;;;;;16.67;6.90;;;;;;;3.59;46.31;99921.62;4421949;32;20090;-66
2021/12/27 10:25:19;;;;;;;10.25;5.55;;;;;;;3.51;46.66;99925.03;4421938;32;20502;-66
2021/12/27 10:27:48;;;;;;;15.10;5.85;;;;;;;3.53;48.06;99918.97;4421915;32;20097;-66
2021/12/27 10:30:19;;;;;;;18.50;5.93;;;;;;;3.54;46.90;99920.72;4421896;32;20090;-66
2021/12/27 10:33:09;;;;;;;12.07;5.10;;;;;;;3.48;47.63;99917.19;4421960;32;20108;-66
2021/12/27 10:35:43;;;;;;;12.00;5.47;;;;;;;3.45;47.02;99917.16;4421618;32;20443;-66
2021/12/27 10:38:17;;;;;;;15.07;6.87;;;;;;;3.70;47.40;99919.09;4421849;32;20608;-66
2021/12/27 10:41:09;;;;;;;12.55;6.28;;;;;;;4.00;45.99;99915.88;4421819;32;20086;-66
2021/12/27 10:43:44;;;;;;;11.10;5.15;;;;;;;3.51;44.72;99922.44;4421842;32;20073;-66
2021/12/27 10:46:17;;;;;;;11.70;5.75;;;;;;;3.51;44.93;99915.47;4421784;32;20120;-66
2021/12/27 10:49:02;;;;;;;11.98;5.97;;;;;;;3.35;43.70;99921.38;4421842;32;20105;-66
2021/12/27 10:51:30;;;;;;;15.45;6.20;;;;;;;3.57;44.90;99923.34;4421763;32;20073;-66
2021/12/27 10:53:59;;;;;;;10.85;5.57;;;;;;;3.73;44.97;99926.09;4421755;32;20378;-66
2021/12/27 10:56:48;;;;;;;10.55;5.15;;;;;;;3.80;45.31;99915.72;4421767;32;20564;-66
2021/12/27 10:59:17;;;;;;;15.68;5.35;;;;;;;3.77;42.03;99910.47;4421645;32;20143;-65
2021/12/27 11:01:48;;;;;;;15.27;6.37;;;;;;;3.75;42.12;99903.53;4421550;32;20085;-66
2021/12/27 11:04:18;;;;;;;10.52;5.37;;;;;;;3.70;43.27;99905.22;4421543;32;20136;-66
2021/12/27 11:06:46;;;;;;;14.00;5.55;;;;;;;3.83;43.86;99900.13;4421370;32;20465;-66
2021/12/27 11:09:17;;;;;;;13.25;5.68;;;;;;;3.83;43.96;99897.50;4421549;32;20092;-66
2021/12/27 11:11:46;;;;;;;10.70;4.90;;;;;;;3.62;43.95;99893.87;4421587;32;20089;-66
2021/12/27 11:14:13;;;;;;;10.38;5.07;;;;;;;3.37;44.07;99900.59;4421631;32;20182;-66
2021/12/27 11:16:41;;;;;;;10.55;5.80;;;;;;;3.50;44.67;99892.03;4421400;32;20173;-66
2021/12/27 11:19:08;;;;;;;9.57;5.62;;;;;;;3.66;45.41;99898.22;4421401;32;20093;-66
2021/12/27 11:21:45;;;;;;;10.93;5.03;;;;;;;3.61;44.57;99898.22;4421341;32;20108;-66
2021/12/27 11:24:13;;;;;;;12.75;6.20;;;;;;;3.74;45.07;99893.94;4421497;32;20425;-66
2021/12/27 11:26:42;;;;;;;10.48;6.03;;;;;;;3.89;45.34;99891.47;4421389;32;20189;-65
2021/12/27 11:29:16;;;;;;;13.60;6.10;;;;;;;3.92;44.99;99885.38;4421458;32;20093;-66
2021/12/27 11:32:06;;;;;;;11.98;6.18;;;;;;;3.95;44.71;99888.91;4421503;32;20149;-66
2021/12/27 11:34:56;;;;;;;13.75;6.50;;;;;;;3.99;41.71;99881.97;4425145;31;20077;-66
2021/12/27 11:37:35;;;;;;;12.82;5.95;;;;;;;3.72;40.36;99883.53;4421209;32;20090;-65
2021/12/27 11:40:08;;;;;;;15.30;5.83;;;;;;;3.87;41.68;99874.94;4421244;32;20128;-65